ZZV weather

Zanesville Municipal Airport
Zanesville, Ohio, United States

Public forecast

Using degrees Fahrenheit for public forecast. Weather courtesy of forecast.io.

METAR (pilot weather report)

Retrieved 2019/05/20 23:53 UTC (18 minutes ago):

KZZV 202353Z AUTO 31010KT 10SM CLR 16/09 A3003 RMK AO2 SLP166 T01610089 10222 20161 51024

TAF (pilot weather forecast)

Forecast is more than 12 hours old.

Retrieved 2019/05/20 00:33 UTC (24 hours ago):

TAF KZZV 202331Z 2100/2124 31012KT P6SM BKN050 FM210400 36004KT P6SM SCT120 FM211000 01004KT P6SM SCT200 FM211200 04004KT P6SM SCT180